^^
Saratoga-Weather Station Historical Data
Daily Summary for August 19, 2020 Units:  Both    English   Metric
Daily Weekly Monthly Yearly Custom
  High: Low: Average:
Temperature: 49.1 °F /  9.5 °C 32 °F /   °C 46.4 °F /  8 °C
Dew Point: 45.9 °F /  7.7 °C 32 °F /   °C 44.2 °F /  6.8 °C
Humidity: 97% % 91%
Wind Speed: 12.1mph /  19.5km/h - 3.6mph /  5.8km/h
Wind Gust: 16mph /  25.7km/h - -
Wind- - West
Pressure: 30.5 in /  1031.2 hPa 0 in /  0.0 hPa -
Precipitation: 0.13 in /  3.3 mm    
Historical Graphs
 
 
Tabular Data for August 19, 2020
Time Temperature Dew Point Pressure Wind Wind Speed Wind Gust Humidity Rainfall Rate (Hourly) solar
00:00 43.2 °F /  6.2 °C 42.4 °F /  5.8 °C 30.2in /  1021.0hPa Calm     97% 0in /  0.0mm 0 W/m2
00:05 43.2 °F /  6.2 °C 42.4 °F /  5.8 °C 30.2in /  1021.0hPa ESE 0.9mph /  1.4km/h 2mph /  3.2km/h 97% 0in /  0.0mm 0 W/m2
00:10 43.5 °F /  6.4 °C 42.8 °F /  6 °C 30.2in /  1021.0hPa ESE 0.9mph /  1.4km/h 2mph /  3.2km/h 97% 0in /  0.0mm 0 W/m2
00:15 43.5 °F /  6.4 °C 42.8 °F /  6 °C 30.2in /  1021.0hPa ESE 2mph /  3.2km/h 2mph /  3.2km/h 97% 0in /  0.0mm 0 W/m2
00:20 43.5 °F /  6.4 °C 42.8 °F /  6 °C 30.1in /  1020.7hPa ESE 0.9mph /  1.4km/h 2mph /  3.2km/h 97% 0in /  0.0mm 0 W/m2
00:25 43.3 °F /  6.3 °C 42.6 °F /  5.9 °C 30.2in /  1021.0hPa Calm   1mph /  1.6km/h 97% 0in /  0.0mm 0 W/m2
00:30 43.5 °F /  6.4 °C 42.8 °F /  6 °C 30.1in /  1020.7hPa SE 3mph /  4.8km/h 3mph /  4.8km/h 97% 0in /  0.0mm 0 W/m2
00:36 43.9 °F /  6.6 °C 43.2 °F /  6.2 °C 30.1in /  1020.7hPa SE 2mph /  3.2km/h 2mph /  3.2km/h 97% 0in /  0.0mm 0 W/m2
00:41 44.1 °F /  6.7 °C 43.3 °F /  6.3 °C 30.1in /  1020.7hPa SE 0.9mph /  1.4km/h 2mph /  3.2km/h 97% 0in /  0.0mm 0 W/m2
00:46 44.4 °F /  6.9 °C 43.7 °F /  6.5 °C 30.1in /  1020.7hPa SE 2.9mph /  4.7km/h 3mph /  4.8km/h 97% 0in /  0.0mm 0 W/m2
00:51 44.6 °F /  7 °C 43.9 °F /  6.6 °C 30.1in /  1020.7hPa ESE 2mph /  3.2km/h 6mph /  9.7km/h 97% 0in /  0.0mm 0 W/m2
00:56 45 °F /  7.2 °C 44.2 °F /  6.8 °C 30.1in /  1020.7hPa East 2.9mph /  4.7km/h 4mph /  6.4km/h 97% 0in /  0.0mm 0 W/m2
01:01 45.1 °F /  7.3 °C 44.4 °F /  6.9 °C 30.1in /  1020.7hPa East 2.9mph /  4.7km/h 3mph /  4.8km/h 97% 0in /  0.0mm 0 W/m2
07:22 46.2 °F /  7.9 °C 43.7 °F /  6.5 °C 30.2in /  1022.0hPa West 2.9mph /  4.7km/h 3mph /  4.8km/h 91% 0in /  0.0mm 0 W/m2
07:27 46 °F /  7.8 °C 43.5 °F /  6.4 °C 30.2in /  1022.0hPa WSW 2.9mph /  4.7km/h 5mph /  8km/h 91% 0in /  0.0mm 0 W/m2
07:37 46 °F /  7.8 °C 43.5 °F /  6.4 °C 30.2in /  1022.4hPa WSW 6.9mph /  11.1km/h 8mph /  12.9km/h 91% 0in /  0.0mm 0 W/m2
07:42 46 °F /  7.8 °C 43.5 °F /  6.4 °C 30.2in /  1022.4hPa West 0.9mph /  1.4km/h 2mph /  3.2km/h 91% 0in /  0.0mm 0 W/m2
07:52 46 °F /  7.8 °C 43.9 °F /  6.6 °C 30.2in /  1022.4hPa WSW 4mph /  6.4km/h 4mph /  6.4km/h 92% 0in /  0.0mm 0 W/m2
07:57 46 °F /  7.8 °C 43.9 °F /  6.6 °C 30.2in /  1022.4hPa West 2mph /  3.2km/h 4mph /  6.4km/h 92% 0in /  0.0mm 0 W/m2
08:01 32 °F /   °C 32 °F /   °C 0in /  0.0hPa Calm     % 0in /  0.0mm W/m2
08:07 46 °F /  7.8 °C 44.1 °F /  6.7 °C 30.2in /  1022.7hPa NW 2.9mph /  4.7km/h 4mph /  6.4km/h 93% 0in /  0.0mm 0 W/m2
08:17 46 °F /  7.8 °C 44.1 °F /  6.7 °C 30.2in /  1023.4hPa Calm   4mph /  6.4km/h 93% 0in /  0.0mm 5 W/m2
08:22 46 °F /  7.8 °C 44.1 °F /  6.7 °C 30.2in /  1023.4hPa WNW 4mph /  6.4km/h 10mph /  16.1km/h 93% 0in /  0.0mm 5 W/m2
08:27 46 °F /  7.8 °C 44.1 °F /  6.7 °C 30.2in /  1023.4hPa West 4mph /  6.4km/h 7mph /  11.3km/h 93% 0in /  0.0mm 7 W/m2
08:32 46 °F /  7.8 °C 44.1 °F /  6.7 °C 30.2in /  1023.4hPa West 8.1mph /  13km/h 10mph /  16.1km/h 93% 0in /  0.0mm 7 W/m2
08:37 46.2 °F /  7.9 °C 44.2 °F /  6.8 °C 30.2in /  1023.4hPa West 2mph /  3.2km/h 4mph /  6.4km/h 93% 0in /  0.0mm 9 W/m2
08:42 46.2 °F /  7.9 °C 44.2 °F /  6.8 °C 30.2in /  1023.4hPa West 6mph /  9.7km/h 10mph /  16.1km/h 93% 0in /  0.0mm 19 W/m2
08:47 46.2 °F /  7.9 °C 44.2 °F /  6.8 °C 30.2in /  1023.7hPa West 4mph /  6.4km/h 7mph /  11.3km/h 93% 0in /  0.0mm 44 W/m2
08:52 46.4 °F /  8 °C 44.2 °F /  6.8 °C 30.2in /  1023.7hPa NW 2mph /  3.2km/h 11mph /  17.7km/h 92% 0in /  0.0mm 40 W/m2
08:57 46.4 °F /  8 °C 44.2 °F /  6.8 °C 30.2in /  1023.7hPa WNW 2mph /  3.2km/h 8mph /  12.9km/h 92% 0in /  0.0mm 33 W/m2
09:02 46.4 °F /  8 °C 44.2 °F /  6.8 °C 30.2in /  1023.7hPa WNW 4mph /  6.4km/h 12mph /  19.3km/h 92% 0in /  0.0mm 47 W/m2
09:07 46.6 °F /  8.1 °C 44.4 °F /  6.9 °C 30.2in /  1023.7hPa West 4mph /  6.4km/h 4mph /  6.4km/h 92% 0in /  0.0mm 69 W/m2
09:12 46.6 °F /  8.1 °C 44.4 °F /  6.9 °C 30.2in /  1023.7hPa WNW 6.9mph /  11.1km/h 12mph /  19.3km/h 92% 0in /  0.0mm 58 W/m2
09:17 46.6 °F /  8.1 °C 44.4 °F /  6.9 °C 30.2in /  1023.7hPa WSW 2.9mph /  4.7km/h 7mph /  11.3km/h 92% 0in /  0.0mm 35 W/m2
09:22 46.6 °F /  8.1 °C 44.4 °F /  6.9 °C 30.2in /  1023.7hPa WSW 2.9mph /  4.7km/h 6mph /  9.7km/h 92% 0in /  0.0mm 95 W/m2
09:27 46.8 °F /  8.2 °C 44.6 °F /  7 °C 30.2in /  1024.0hPa West 6.9mph /  11.1km/h 8mph /  12.9km/h 92% 0in /  0.0mm 79 W/m2
09:32 46.8 °F /  8.2 °C 44.6 °F /  7 °C 30.2in /  1024.0hPa West 4mph /  6.4km/h 6mph /  9.7km/h 92% 0in /  0.0mm 49 W/m2
09:37 46.9 °F /  8.3 °C 44.8 °F /  7.1 °C 30.2in /  1024.0hPa WSW 2mph /  3.2km/h 7mph /  11.3km/h 92% 0in /  0.0mm 88 W/m2
09:42 46.9 °F /  8.3 °C 44.8 °F /  7.1 °C 30.2in /  1024.0hPa WSW 4mph /  6.4km/h 8mph /  12.9km/h 92% 0in /  0.0mm 90 W/m2
09:47 46.9 °F /  8.3 °C 44.8 °F /  7.1 °C 30.2in /  1024.0hPa WSW 2.9mph /  4.7km/h 7mph /  11.3km/h 92% 0in /  0.0mm 98 W/m2
09:52 47.1 °F /  8.4 °C 45 °F /  7.2 °C 30.2in /  1024.0hPa WSW 4mph /  6.4km/h 8mph /  12.9km/h 92% 0in /  0.0mm 104 W/m2
09:57 47.1 °F /  8.4 °C 45 °F /  7.2 °C 30.2in /  1024.0hPa WNW 11mph /  17.7km/h 11mph /  17.7km/h 92% 0in /  0.0mm 88 W/m2
10:02 47.1 °F /  8.4 °C 44.6 °F /  7 °C 30.2in /  1024.0hPa WNW 4mph /  6.4km/h 7mph /  11.3km/h 91% 0in /  0.0mm 69 W/m2
10:07 47.1 °F /  8.4 °C 44.6 °F /  7 °C 30.2in /  1024.0hPa West 8.1mph /  13km/h 9mph /  14.5km/h 91% 0in /  0.0mm 81 W/m2
10:12 47.1 °F /  8.4 °C 44.6 °F /  7 °C 30.2in /  1024.0hPa West 2mph /  3.2km/h 4mph /  6.4km/h 91% 0in /  0.0mm 109 W/m2
10:17 47.3 °F /  8.5 °C 44.6 °F /  7 °C 30.2in /  1024.0hPa WNW 2.9mph /  4.7km/h 11mph /  17.7km/h 90% 0in /  0.0mm 102 W/m2
10:22 47.5 °F /  8.6 °C 44.8 °F /  7.1 °C 30.2in /  1024.0hPa West 2.9mph /  4.7km/h 11mph /  17.7km/h 90% 0in /  0.0mm 109 W/m2
10:27 47.7 °F /  8.7 °C 45 °F /  7.2 °C 30.2in /  1024.0hPa NNW 4mph /  6.4km/h 7mph /  11.3km/h 90% 0in /  0.0mm 111 W/m2
10:32 47.7 °F /  8.7 °C 45 °F /  7.2 °C 30.3in /  1024.4hPa WNW 4mph /  6.4km/h 7mph /  11.3km/h 90% 0in /  0.0mm 95 W/m2
10:37 47.7 °F /  8.7 °C 45 °F /  7.2 °C 30.2in /  1024.0hPa West 2mph /  3.2km/h 7mph /  11.3km/h 90% 0in /  0.0mm 93 W/m2
10:42 47.7 °F /  8.7 °C 44.6 °F /  7 °C 30.2in /  1024.0hPa WNW 2.9mph /  4.7km/h 6mph /  9.7km/h 89% 0in /  0.0mm 135 W/m2
10:47 47.8 °F /  8.8 °C 44.8 °F /  7.1 °C 30.2in /  1024.0hPa WNW 6mph /  9.7km/h 11mph /  17.7km/h 89% 0in /  0.0mm 88 W/m2
10:52 47.8 °F /  8.8 °C 44.8 °F /  7.1 °C 30.2in /  1024.0hPa West 4mph /  6.4km/h 6mph /  9.7km/h 89% 0in /  0.0mm 141 W/m2
10:57 48 °F /  8.9 °C 45 °F /  7.2 °C 30.2in /  1024.0hPa West 0.9mph /  1.4km/h 10mph /  16.1km/h 89% 0in /  0.0mm 121 W/m2
11:02 48.2 °F /  9 °C 45.1 °F /  7.3 °C 30.2in /  1024.0hPa West 4mph /  6.4km/h 6mph /  9.7km/h 89% 0in /  0.0mm 192 W/m2
11:08 48.4 °F /  9.1 °C 45.3 °F /  7.4 °C 30.2in /  1024.0hPa NW 4.9mph /  7.9km/h 8mph /  12.9km/h 89% 0in /  0.0mm 144 W/m2
11:13 48.6 °F /  9.2 °C 45.5 °F /  7.5 °C 30.3in /  1024.4hPa WSW 8.9mph /  14.3km/h 11mph /  17.7km/h 89% 0in /  0.0mm 148 W/m2
11:18 48.6 °F /  9.2 °C 45.1 °F /  7.3 °C 30.2in /  1024.0hPa WNW 2.9mph /  4.7km/h 10mph /  16.1km/h 88% 0in /  0.0mm 97 W/m2
11:23 48.6 °F /  9.2 °C 45.1 °F /  7.3 °C 30.2in /  1024.0hPa WNW 6.9mph /  11.1km/h 11mph /  17.7km/h 88% 0in /  0.0mm 207 W/m2
11:28 48.7 °F /  9.3 °C 45.3 °F /  7.4 °C 30.2in /  1024.0hPa NW 4.9mph /  7.9km/h 6mph /  9.7km/h 88% 0in /  0.0mm 190 W/m2
11:33 48.9 °F /  9.4 °C 45.5 °F /  7.5 °C 30.2in /  1024.0hPa West 4mph /  6.4km/h 6mph /  9.7km/h 88% 0in /  0.0mm 183 W/m2
11:38 48.9 °F /  9.4 °C 45.1 °F /  7.3 °C 30.2in /  1024.0hPa NW 4mph /  6.4km/h 9mph /  14.5km/h 87% 0in /  0.0mm 171 W/m2
11:43 49.1 °F /  9.5 °C 45.3 °F /  7.4 °C 30.2in /  1024.0hPa WSW 4mph /  6.4km/h 13mph /  20.9km/h 87% 0in /  0.0mm 160 W/m2
11:48 49.1 °F /  9.5 °C 45.1 °F /  7.3 °C 30.2in /  1024.0hPa SW 11mph /  17.7km/h 11mph /  17.7km/h 86% 0in /  0.0mm 81 W/m2
11:53 48.9 °F /  9.4 °C 45.1 °F /  7.3 °C 30.2in /  1024.0hPa NNW 4.9mph /  7.9km/h 7mph /  11.3km/h 87% 0in /  0.0mm 128 W/m2
11:58 48.6 °F /  9.2 °C 45.1 °F /  7.3 °C 30.2in /  1024.0hPa SW 6mph /  9.7km/h 9mph /  14.5km/h 88% 0in /  0.0mm 107 W/m2
12:03 48.4 °F /  9.1 °C 45.3 °F /  7.4 °C 30.3in /  1024.4hPa West 6mph /  9.7km/h 10mph /  16.1km/h 89% 0in /  0.0mm 88 W/m2
12:08 48.4 °F /  9.1 °C 45.3 °F /  7.4 °C 30.2in /  1024.0hPa WNW 6.9mph /  11.1km/h 15mph /  24.1km/h 89% 0in /  0.0mm 47 W/m2
12:13 48.4 °F /  9.1 °C 45.3 °F /  7.4 °C 30.2in /  1024.0hPa WNW 2.9mph /  4.7km/h 11mph /  17.7km/h 89% 0in /  0.0mm 83 W/m2
12:18 48.4 °F /  9.1 °C 45 °F /  7.2 °C 30.3in /  1024.4hPa WNW 12.1mph /  19.5km/h 12mph /  19.3km/h 88% 0in /  0.0mm 65 W/m2
12:23 48.4 °F /  9.1 °C 45 °F /  7.2 °C 30.3in /  1024.4hPa NW 6mph /  9.7km/h 9mph /  14.5km/h 88% 0in /  0.0mm 49 W/m2
12:28 48.4 °F /  9.1 °C 45 °F /  7.2 °C 30.3in /  1024.4hPa NW 6mph /  9.7km/h 11mph /  17.7km/h 88% 0in /  0.0mm 98 W/m2
12:33 48.6 °F /  9.2 °C 44.8 °F /  7.1 °C 30.3in /  1024.4hPa WNW 8.1mph /  13km/h 16mph /  25.7km/h 87% 0in /  0.0mm 153 W/m2
12:38 48.7 °F /  9.3 °C 45 °F /  7.2 °C 30.3in /  1024.4hPa NW 2.9mph /  4.7km/h 8mph /  12.9km/h 87% 0in /  0.0mm 141 W/m2
12:43 48.7 °F /  9.3 °C 44.8 °F /  7.1 °C 30.3in /  1024.4hPa WNW 4.9mph /  7.9km/h 16mph /  25.7km/h 86% 0in /  0.0mm 113 W/m2
12:48 48.9 °F /  9.4 °C 45 °F /  7.2 °C 30.2in /  1024.0hPa SW 2mph /  3.2km/h 10mph /  16.1km/h 86% 0in /  0.0mm 111 W/m2
12:53 48.9 °F /  9.4 °C 45 °F /  7.2 °C 30.2in /  1024.0hPa West 6.9mph /  11.1km/h 10mph /  16.1km/h 86% 0in /  0.0mm 91 W/m2
12:58 48.9 °F /  9.4 °C 45 °F /  7.2 °C 30.3in /  1024.4hPa West 8.9mph /  14.3km/h 11mph /  17.7km/h 86% 0in /  0.0mm 93 W/m2
13:03 48.9 °F /  9.4 °C 45.1 °F /  7.3 °C 30.3in /  1024.4hPa WNW 4.9mph /  7.9km/h 11mph /  17.7km/h 87% 0in /  0.0mm 74 W/m2
13:08 48.7 °F /  9.3 °C 45.3 °F /  7.4 °C 30.3in /  1024.4hPa WNW 2.9mph /  4.7km/h 8mph /  12.9km/h 88% 0in /  0.0mm 60 W/m2
13:13 48.4 °F /  9.1 °C 45.3 °F /  7.4 °C 30.3in /  1024.4hPa WNW 0.9mph /  1.4km/h 10mph /  16.1km/h 89% 0.01in /  0.2mm 60 W/m2
13:18 48.4 °F /  9.1 °C 45.5 °F /  7.5 °C 30.3in /  1024.4hPa West 6mph /  9.7km/h 7mph /  11.3km/h 90% 0.01in /  0.2mm 56 W/m2
13:23 48 °F /  8.9 °C 45.5 °F /  7.5 °C 30.3in /  1024.4hPa NW 2mph /  3.2km/h 6mph /  9.7km/h 91% 0.02in /  0.5mm 42 W/m2
13:28 47.8 °F /  8.8 °C 45.3 °F /  7.4 °C 30.3in /  1024.4hPa WSW 6.9mph /  11.1km/h 9mph /  14.5km/h 91% 0.02in /  0.5mm 102 W/m2
13:33 47.8 °F /  8.8 °C 45.7 °F /  7.6 °C 30.3in /  1024.7hPa West 4mph /  6.4km/h 7mph /  11.3km/h 92% 0.02in /  0.5mm 97 W/m2
13:38 47.8 °F /  8.8 °C 45.7 °F /  7.6 °C 30.3in /  1024.4hPa NW 4mph /  6.4km/h 10mph /  16.1km/h 92% 0.02in /  0.5mm 118 W/m2
13:43 47.8 °F /  8.8 °C 45.7 °F /  7.6 °C 30.3in /  1024.7hPa WSW 0.9mph /  1.4km/h 8mph /  12.9km/h 92% 0.02in /  0.5mm 77 W/m2
13:48 47.8 °F /  8.8 °C 45.7 °F /  7.6 °C 30.3in /  1024.7hPa WSW 6.9mph /  11.1km/h 10mph /  16.1km/h 92% 0.02in /  0.5mm 79 W/m2
13:53 47.8 °F /  8.8 °C 45.3 °F /  7.4 °C 30.3in /  1024.7hPa WNW 0.9mph /  1.4km/h 4mph /  6.4km/h 91% 0.02in /  0.5mm 116 W/m2
13:58 48 °F /  8.9 °C 45.9 °F /  7.7 °C 30.3in /  1024.7hPa SW 4mph /  6.4km/h 5mph /  8km/h 92% 0.02in /  0.5mm 76 W/m2
14:03 48 °F /  8.9 °C 45.5 °F /  7.5 °C 30.3in /  1024.7hPa WNW 6.9mph /  11.1km/h 13mph /  20.9km/h 91% 0.02in /  0.5mm 125 W/m2
14:08 48.4 °F /  9.1 °C 45.9 °F /  7.7 °C 30.3in /  1025.1hPa West 8.1mph /  13km/h 11mph /  17.7km/h 91% 0.02in /  0.5mm 121 W/m2
14:13 48.4 °F /  9.1 °C 45.5 °F /  7.5 °C 30.3in /  1025.1hPa West 4mph /  6.4km/h 13mph /  20.9km/h 90% 0.02in /  0.5mm 100 W/m2
14:18 48.4 °F /  9.1 °C 45.5 °F /  7.5 °C 30.3in /  1025.1hPa WSW 0.9mph /  1.4km/h 7mph /  11.3km/h 90% 0.02in /  0.5mm 90 W/m2
14:23 48.4 °F /  9.1 °C 45.5 °F /  7.5 °C 30.3in /  1025.1hPa West 6.9mph /  11.1km/h 13mph /  20.9km/h 90% 0.01in /  0.2mm 47 W/m2
14:28 48.4 °F /  9.1 °C 45.5 °F /  7.5 °C 30.3in /  1025.1hPa West 2mph /  3.2km/h 14mph /  22.5km/h 90% 0in /  0.0mm 63 W/m2
14:33 48.2 °F /  9 °C 45.3 °F /  7.4 °C 30.3in /  1025.1hPa WSW 2.9mph /  4.7km/h 8mph /  12.9km/h 90% 0in /  0.0mm 47 W/m2
14:38 48 °F /  8.9 °C 45.5 °F /  7.5 °C 30.3in /  1025.1hPa WNW 4mph /  6.4km/h 8mph /  12.9km/h 91% 0.01in /  0.2mm 53 W/m2
14:43 48 °F /  8.9 °C 45.5 °F /  7.5 °C 30.3in /  1025.1hPa WSW 4mph /  6.4km/h 7mph /  11.3km/h 91% 0.01in /  0.2mm 47 W/m2
14:48 47.8 °F /  8.8 °C 45.3 °F /  7.4 °C 30.3in /  1025.1hPa WNW 2.9mph /  4.7km/h 4mph /  6.4km/h 91% 0.01in /  0.2mm 39 W/m2
14:53 47.8 °F /  8.8 °C 45.3 °F /  7.4 °C 30.3in /  1025.1hPa WNW 2mph /  3.2km/h 8mph /  12.9km/h 91% 0.01in /  0.2mm 40 W/m2
14:58 47.8 °F /  8.8 °C 45.3 °F /  7.4 °C 30.3in /  1025.1hPa WNW 4mph /  6.4km/h 4mph /  6.4km/h 91% 0.01in /  0.2mm 46 W/m2
15:03 47.8 °F /  8.8 °C 45.7 °F /  7.6 °C 30.3in /  1025.1hPa SW 2.9mph /  4.7km/h 3mph /  4.8km/h 92% 0.01in /  0.2mm 49 W/m2
15:08 47.8 °F /  8.8 °C 45.7 °F /  7.6 °C 30.3in /  1025.1hPa West 0.9mph /  1.4km/h 3mph /  4.8km/h 92% 0.01in /  0.2mm 37 W/m2
15:13 47.7 °F /  8.7 °C 45.5 °F /  7.5 °C 30.3in /  1025.1hPa Calm   3mph /  4.8km/h 92% 0.01in /  0.2mm 47 W/m2
15:18 47.7 °F /  8.7 °C 45.5 °F /  7.5 °C 30.3in /  1025.1hPa Calm   4mph /  6.4km/h 92% 0.01in /  0.2mm 35 W/m2
15:23 47.8 °F /  8.8 °C 45.7 °F /  7.6 °C 30.3in /  1025.1hPa West 0.9mph /  1.4km/h 4mph /  6.4km/h 92% 0.01in /  0.2mm 35 W/m2
15:28 47.8 °F /  8.8 °C 45.7 °F /  7.6 °C 30.3in /  1025.1hPa Calm   3mph /  4.8km/h 92% 0.01in /  0.2mm 76 W/m2
15:33 47.8 °F /  8.8 °C 45.7 °F /  7.6 °C 30.3in /  1025.1hPa NW 0.9mph /  1.4km/h 3mph /  4.8km/h 92% 0.01in /  0.2mm 47 W/m2
15:38 48 °F /  8.9 °C 45.9 °F /  7.7 °C 30.3in /  1025.1hPa SSW 4mph /  6.4km/h 4mph /  6.4km/h 92% 0in /  0.0mm 30 W/m2
15:43 48 °F /  8.9 °C 45.5 °F /  7.5 °C 30.3in /  1025.1hPa East 2.9mph /  4.7km/h 3mph /  4.8km/h 91% 0in /  0.0mm 33 W/m2
15:48 48 °F /  8.9 °C 45.5 °F /  7.5 °C 30.3in /  1025.1hPa North 0.9mph /  1.4km/h 2mph /  3.2km/h 91% 0.01in /  0.2mm 14 W/m2
15:53 47.8 °F /  8.8 °C 45.3 °F /  7.4 °C 30.3in /  1025.1hPa West 0.9mph /  1.4km/h 4mph /  6.4km/h 91% 0.01in /  0.2mm 14 W/m2
15:58 48 °F /  8.9 °C 45.5 °F /  7.5 °C 30.3in /  1025.1hPa West 2mph /  3.2km/h 3mph /  4.8km/h 91% 0.01in /  0.2mm 12 W/m2
16:03 48 °F /  8.9 °C 45.5 °F /  7.5 °C 30.3in /  1025.4hPa NW 2mph /  3.2km/h 4mph /  6.4km/h 91% 0.01in /  0.2mm 30 W/m2
16:08 48 °F /  8.9 °C 45.1 °F /  7.3 °C 30.3in /  1025.4hPa WNW 0.9mph /  1.4km/h 2mph /  3.2km/h 90% 0.01in /  0.2mm 16 W/m2
16:13 48 °F /  8.9 °C 45.1 °F /  7.3 °C 30.3in /  1025.4hPa WNW 2mph /  3.2km/h 3mph /  4.8km/h 90% 0.01in /  0.2mm 14 W/m2
16:18 48 °F /  8.9 °C 45.1 °F /  7.3 °C 30.3in /  1025.7hPa Calm   3mph /  4.8km/h 90% 0.01in /  0.2mm 5 W/m2
16:23 48 °F /  8.9 °C 45.1 °F /  7.3 °C 30.3in /  1025.7hPa West 2mph /  3.2km/h 5mph /  8km/h 90% 0.01in /  0.2mm 0 W/m2
16:28 48 °F /  8.9 °C 45.1 °F /  7.3 °C 30.3in /  1025.7hPa Calm   9mph /  14.5km/h 90% 0.02in /  0.5mm 0 W/m2
16:33 47.8 °F /  8.8 °C 45 °F /  7.2 °C 30.3in /  1026.1hPa WNW 2.9mph /  4.7km/h 12mph /  19.3km/h 90% 0.06in /  1.5mm 0 W/m2
16:38 47.1 °F /  8.4 °C 44.1 °F /  6.7 °C 30.3in /  1026.1hPa West 2.9mph /  4.7km/h 7mph /  11.3km/h 89% 0.07in /  1.8mm 0 W/m2
16:43 46.6 °F /  8.1 °C 43.5 °F /  6.4 °C 30.3in /  1026.1hPa WSW 4mph /  6.4km/h 12mph /  19.3km/h 89% 0.09in /  2.3mm 0 W/m2
16:48 46 °F /  7.8 °C 43.3 °F /  6.3 °C 30.3in /  1026.1hPa WNW 8.1mph /  13km/h 9mph /  14.5km/h 90% 0.09in /  2.3mm 0 W/m2
16:53 45.7 °F /  7.6 °C 43 °F /  6.1 °C 30.3in /  1026.1hPa WSW 4mph /  6.4km/h 8mph /  12.9km/h 90% 0.09in /  2.3mm 0 W/m2
16:58 45.3 °F /  7.4 °C 42.6 °F /  5.9 °C 30.3in /  1026.1hPa WNW 4.9mph /  7.9km/h 8mph /  12.9km/h 90% 0.09in /  2.3mm 0 W/m2
17:03 45.3 °F /  7.4 °C 42.6 °F /  5.9 °C 30.3in /  1026.4hPa West 2mph /  3.2km/h 9mph /  14.5km/h 90% 0.09in /  2.3mm 0 W/m2
17:08 45.3 °F /  7.4 °C 42.8 °F /  6 °C 30.3in /  1026.4hPa SW 6mph /  9.7km/h 8mph /  12.9km/h 91% 0.09in /  2.3mm 0 W/m2
17:13 45.3 °F /  7.4 °C 42.8 °F /  6 °C 30.3in /  1026.4hPa West 6.9mph /  11.1km/h 9mph /  14.5km/h 91% 0.09in /  2.3mm 0 W/m2
17:18 45.3 °F /  7.4 °C 43.2 °F /  6.2 °C 30.3in /  1026.8hPa WSW 2.9mph /  4.7km/h 9mph /  14.5km/h 92% 0.09in /  2.3mm 0 W/m2
17:23 45.5 °F /  7.5 °C 43.3 °F /  6.3 °C 30.3in /  1026.8hPa West 2mph /  3.2km/h 7mph /  11.3km/h 92% 0.09in /  2.3mm 0 W/m2
17:28 45.7 °F /  7.6 °C 43.5 °F /  6.4 °C 30.3in /  1026.8hPa West 4mph /  6.4km/h 9mph /  14.5km/h 92% 0.08in /  2.0mm 0 W/m2
17:33 45.7 °F /  7.6 °C 43.5 °F /  6.4 °C 30.3in /  1026.8hPa West 6mph /  9.7km/h 7mph /  11.3km/h 92% 0.05in /  1.3mm 0 W/m2
17:38 45.9 °F /  7.7 °C 43.9 °F /  6.6 °C 30.3in /  1026.8hPa SW 4.9mph /  7.9km/h 12mph /  19.3km/h 93% 0.03in /  0.8mm 0 W/m2
17:43 46 °F /  7.8 °C 43.9 °F /  6.6 °C 30.3in /  1026.8hPa WNW 2mph /  3.2km/h 7mph /  11.3km/h 92% 0.02in /  0.5mm 0 W/m2
17:48 46 °F /  7.8 °C 44.1 °F /  6.7 °C 30.3in /  1026.8hPa West 6mph /  9.7km/h 12mph /  19.3km/h 93% 0in /  0.0mm 0 W/m2
17:53 46 °F /  7.8 °C 43.9 °F /  6.6 °C 30.3in /  1026.8hPa WSW 2.9mph /  4.7km/h 8mph /  12.9km/h 92% 0in /  0.0mm 0 W/m2
17:58 46 °F /  7.8 °C 43.9 °F /  6.6 °C 30.3in /  1026.8hPa SW 8.9mph /  14.3km/h 9mph /  14.5km/h 92% 0in /  0.0mm 0 W/m2
18:03 46 °F /  7.8 °C 43.9 °F /  6.6 °C 30.3in /  1027.1hPa West 2.9mph /  4.7km/h 8mph /  12.9km/h 92% 0in /  0.0mm 0 W/m2
18:08 46 °F /  7.8 °C 43.9 °F /  6.6 °C 30.3in /  1027.1hPa West 8.1mph /  13km/h 11mph /  17.7km/h 92% 0in /  0.0mm 0 W/m2
18:13 46 °F /  7.8 °C 43.9 °F /  6.6 °C 30.3in /  1027.1hPa SSW 2mph /  3.2km/h 9mph /  14.5km/h 92% 0in /  0.0mm 0 W/m2
18:18 46.2 °F /  7.9 °C 44.1 °F /  6.7 °C 30.3in /  1027.1hPa West 2.9mph /  4.7km/h 11mph /  17.7km/h 92% 0in /  0.0mm 0 W/m2
18:23 46.2 °F /  7.9 °C 44.1 °F /  6.7 °C 30.3in /  1027.4hPa West 2mph /  3.2km/h 5mph /  8km/h 92% 0in /  0.0mm 0 W/m2
18:28 46 °F /  7.8 °C 43.9 °F /  6.6 °C 30.3in /  1027.4hPa NW 2.9mph /  4.7km/h 6mph /  9.7km/h 92% 0in /  0.0mm 0 W/m2
18:33 46 °F /  7.8 °C 43.9 °F /  6.6 °C 30.3in /  1027.4hPa West 2.9mph /  4.7km/h 6mph /  9.7km/h 92% 0in /  0.0mm 0 W/m2
18:38 46 °F /  7.8 °C 44.1 °F /  6.7 °C 30.3in /  1027.4hPa WNW 2.9mph /  4.7km/h 7mph /  11.3km/h 93% 0in /  0.0mm 0 W/m2
18:43 46 °F /  7.8 °C 44.1 °F /  6.7 °C 30.3in /  1027.4hPa WNW 4.9mph /  7.9km/h 7mph /  11.3km/h 93% 0in /  0.0mm 0 W/m2
18:48 46.2 °F /  7.9 °C 44.2 °F /  6.8 °C 30.3in /  1027.4hPa NW 4mph /  6.4km/h 8mph /  12.9km/h 93% 0in /  0.0mm 0 W/m2
18:53 46.2 °F /  7.9 °C 44.1 °F /  6.7 °C 30.4in /  1027.8hPa WSW 4mph /  6.4km/h 9mph /  14.5km/h 92% 0in /  0.0mm 0 W/m2
18:58 46.2 °F /  7.9 °C 44.1 °F /  6.7 °C 30.4in /  1027.8hPa SSW 4mph /  6.4km/h 6mph /  9.7km/h 92% 0in /  0.0mm 0 W/m2
19:03 46.2 °F /  7.9 °C 44.1 °F /  6.7 °C 30.4in /  1027.8hPa West 2.9mph /  4.7km/h 9mph /  14.5km/h 92% 0in /  0.0mm 0 W/m2
19:08 46.2 °F /  7.9 °C 44.2 °F /  6.8 °C 30.4in /  1028.1hPa West 2mph /  3.2km/h 6mph /  9.7km/h 93% 0in /  0.0mm 0 W/m2
19:13 46 °F /  7.8 °C 44.1 °F /  6.7 °C 30.4in /  1028.1hPa WSW 4mph /  6.4km/h 4mph /  6.4km/h 93% 0in /  0.0mm 0 W/m2
19:18 46 °F /  7.8 °C 44.1 °F /  6.7 °C 30.4in /  1028.1hPa West 0.9mph /  1.4km/h 4mph /  6.4km/h 93% 0in /  0.0mm 0 W/m2
19:23 46 °F /  7.8 °C 44.1 °F /  6.7 °C 30.4in /  1028.1hPa WNW 4mph /  6.4km/h 7mph /  11.3km/h 93% 0in /  0.0mm 0 W/m2
19:28 46 °F /  7.8 °C 44.1 °F /  6.7 °C 30.4in /  1028.5hPa West 4mph /  6.4km/h 7mph /  11.3km/h 93% 0in /  0.0mm 0 W/m2
19:34 46 °F /  7.8 °C 44.1 °F /  6.7 °C 30.4in /  1028.5hPa WSW 4.9mph /  7.9km/h 5mph /  8km/h 93% 0in /  0.0mm 0 W/m2
19:39 46 °F /  7.8 °C 44.1 °F /  6.7 °C 30.4in /  1028.5hPa WNW 2.9mph /  4.7km/h 7mph /  11.3km/h 93% 0in /  0.0mm 0 W/m2
19:44 46 °F /  7.8 °C 44.1 °F /  6.7 °C 30.4in /  1028.8hPa West 4mph /  6.4km/h 10mph /  16.1km/h 93% 0in /  0.0mm 0 W/m2
19:49 46 °F /  7.8 °C 44.1 °F /  6.7 °C 30.4in /  1028.5hPa West 0.9mph /  1.4km/h 6mph /  9.7km/h 93% 0in /  0.0mm 0 W/m2
19:54 46 °F /  7.8 °C 44.1 °F /  6.7 °C 30.4in /  1028.5hPa West 6mph /  9.7km/h 10mph /  16.1km/h 93% 0in /  0.0mm 0 W/m2
19:59 46 °F /  7.8 °C 44.1 °F /  6.7 °C 30.4in /  1028.8hPa WSW 2.9mph /  4.7km/h 6mph /  9.7km/h 93% 0in /  0.0mm 0 W/m2
20:04 46 °F /  7.8 °C 44.1 °F /  6.7 °C 30.4in /  1028.5hPa West 0.9mph /  1.4km/h 10mph /  16.1km/h 93% 0in /  0.0mm 0 W/m2
20:09 45.9 °F /  7.7 °C 43.9 °F /  6.6 °C 30.4in /  1028.5hPa West 6mph /  9.7km/h 7mph /  11.3km/h 93% 0in /  0.0mm 0 W/m2
20:14 45.9 °F /  7.7 °C 43.9 °F /  6.6 °C 30.4in /  1028.5hPa WNW 4mph /  6.4km/h 4mph /  6.4km/h 93% 0in /  0.0mm 0 W/m2
20:19 45.7 °F /  7.6 °C 43.7 °F /  6.5 °C 30.4in /  1028.5hPa WNW 4.9mph /  7.9km/h 5mph /  8km/h 93% 0in /  0.0mm 0 W/m2
20:24 45.7 °F /  7.6 °C 43.7 °F /  6.5 °C 30.4in /  1028.5hPa West 2mph /  3.2km/h 9mph /  14.5km/h 93% 0in /  0.0mm 0 W/m2
20:29 45.5 °F /  7.5 °C 43.5 °F /  6.4 °C 30.4in /  1028.5hPa West 4mph /  6.4km/h 10mph /  16.1km/h 93% 0in /  0.0mm 0 W/m2
20:34 45.5 °F /  7.5 °C 43.5 °F /  6.4 °C 30.4in /  1028.8hPa West 2mph /  3.2km/h 9mph /  14.5km/h 93% 0in /  0.0mm 0 W/m2
20:39 45.3 °F /  7.4 °C 43.3 °F /  6.3 °C 30.4in /  1028.8hPa WNW 2.9mph /  4.7km/h 10mph /  16.1km/h 93% 0in /  0.0mm 0 W/m2
20:44 45.3 °F /  7.4 °C 43.7 °F /  6.5 °C 30.4in /  1029.1hPa WSW 4mph /  6.4km/h 8mph /  12.9km/h 94% 0in /  0.0mm 0 W/m2
20:49 45.1 °F /  7.3 °C 43.5 °F /  6.4 °C 30.4in /  1029.1hPa West 4mph /  6.4km/h 7mph /  11.3km/h 94% 0in /  0.0mm 0 W/m2
20:54 45.3 °F /  7.4 °C 43.7 °F /  6.5 °C 30.4in /  1029.1hPa West 4mph /  6.4km/h 8mph /  12.9km/h 94% 0in /  0.0mm 0 W/m2
20:59 45.3 °F /  7.4 °C 43.7 °F /  6.5 °C 30.4in /  1029.1hPa West 2.9mph /  4.7km/h 9mph /  14.5km/h 94% 0in /  0.0mm 0 W/m2
21:04 45.3 °F /  7.4 °C 43.3 °F /  6.3 °C 30.4in /  1029.5hPa SW 4.9mph /  7.9km/h 8mph /  12.9km/h 93% 0in /  0.0mm 0 W/m2
21:09 45.3 °F /  7.4 °C 43.3 °F /  6.3 °C 30.4in /  1029.5hPa West 2mph /  3.2km/h 6mph /  9.7km/h 93% 0in /  0.0mm 0 W/m2
21:14 45.1 °F /  7.3 °C 43.2 °F /  6.2 °C 30.4in /  1029.5hPa WSW 4mph /  6.4km/h 8mph /  12.9km/h 93% 0in /  0.0mm 0 W/m2
21:19 45.1 °F /  7.3 °C 43.2 °F /  6.2 °C 30.4in /  1029.5hPa West 4mph /  6.4km/h 8mph /  12.9km/h 93% 0in /  0.0mm 0 W/m2
21:24 45.1 °F /  7.3 °C 43.2 °F /  6.2 °C 30.4in /  1029.5hPa WSW 4mph /  6.4km/h 6mph /  9.7km/h 93% 0in /  0.0mm 0 W/m2
21:29 45.1 °F /  7.3 °C 43.2 °F /  6.2 °C 30.4in /  1029.5hPa West 2.9mph /  4.7km/h 9mph /  14.5km/h 93% 0in /  0.0mm 0 W/m2
21:34 45 °F /  7.2 °C 43 °F /  6.1 °C 30.4in /  1029.8hPa West 2mph /  3.2km/h 6mph /  9.7km/h 93% 0in /  0.0mm 0 W/m2
21:39 45 °F /  7.2 °C 43 °F /  6.1 °C 30.4in /  1029.5hPa West 6mph /  9.7km/h 6mph /  9.7km/h 93% 0in /  0.0mm 0 W/m2
21:44 45 °F /  7.2 °C 43 °F /  6.1 °C 30.4in /  1029.8hPa WSW 6.9mph /  11.1km/h 9mph /  14.5km/h 93% 0in /  0.0mm 0 W/m2
21:49 45 °F /  7.2 °C 43.3 °F /  6.3 °C 30.4in /  1029.8hPa WSW 2.9mph /  4.7km/h 8mph /  12.9km/h 94% 0in /  0.0mm 0 W/m2
21:54 45.1 °F /  7.3 °C 43.2 °F /  6.2 °C 30.4in /  1029.8hPa West 4mph /  6.4km/h 10mph /  16.1km/h 93% 0in /  0.0mm 0 W/m2
21:59 45.1 °F /  7.3 °C 43.2 °F /  6.2 °C 30.4in /  1029.8hPa West 2.9mph /  4.7km/h 9mph /  14.5km/h 93% 0in /  0.0mm 0 W/m2
22:04 45.3 °F /  7.4 °C 43.3 °F /  6.3 °C 30.4in /  1029.8hPa West 6mph /  9.7km/h 7mph /  11.3km/h 93% 0in /  0.0mm 0 W/m2
22:09 45.3 °F /  7.4 °C 43.3 °F /  6.3 °C 30.4in /  1029.8hPa West 4mph /  6.4km/h 8mph /  12.9km/h 93% 0in /  0.0mm 0 W/m2
22:14 45.3 °F /  7.4 °C 43.3 °F /  6.3 °C 30.4in /  1029.8hPa West 2.9mph /  4.7km/h 7mph /  11.3km/h 93% 0in /  0.0mm 0 W/m2
22:19 45.3 °F /  7.4 °C 43.3 °F /  6.3 °C 30.4in /  1029.8hPa WNW 4mph /  6.4km/h 6mph /  9.7km/h 93% 0in /  0.0mm 0 W/m2
22:24 45.3 °F /  7.4 °C 43.3 °F /  6.3 °C 30.4in /  1029.8hPa WNW 2.9mph /  4.7km/h 7mph /  11.3km/h 93% 0in /  0.0mm 0 W/m2
22:29 45.3 °F /  7.4 °C 43.3 °F /  6.3 °C 30.4in /  1030.1hPa NW 2mph /  3.2km/h 8mph /  12.9km/h 93% 0in /  0.0mm 0 W/m2
22:34 45.3 °F /  7.4 °C 43.3 °F /  6.3 °C 30.4in /  1030.1hPa WNW 4mph /  6.4km/h 7mph /  11.3km/h 93% 0in /  0.0mm 0 W/m2
22:39 45.1 °F /  7.3 °C 43.2 °F /  6.2 °C 30.4in /  1030.1hPa West 2.9mph /  4.7km/h 8mph /  12.9km/h 93% 0in /  0.0mm 0 W/m2
22:44 45.1 °F /  7.3 °C 43.2 °F /  6.2 °C 30.4in /  1030.1hPa WNW 2.9mph /  4.7km/h 6mph /  9.7km/h 93% 0in /  0.0mm 0 W/m2
22:49 45.1 °F /  7.3 °C 43.2 °F /  6.2 °C 30.4in /  1030.1hPa West 4mph /  6.4km/h 8mph /  12.9km/h 93% 0in /  0.0mm 0 W/m2
22:54 45.1 °F /  7.3 °C 43.2 °F /  6.2 °C 30.4in /  1030.1hPa West 4mph /  6.4km/h 7mph /  11.3km/h 93% 0in /  0.0mm 0 W/m2
22:59 45.1 °F /  7.3 °C 43.2 °F /  6.2 °C 30.4in /  1030.1hPa WNW 2mph /  3.2km/h 4mph /  6.4km/h 93% 0in /  0.0mm 0 W/m2
23:04 45 °F /  7.2 °C 43 °F /  6.1 °C 30.4in /  1030.5hPa NW 2.9mph /  4.7km/h 7mph /  11.3km/h 93% 0in /  0.0mm 0 W/m2
23:09 45 °F /  7.2 °C 43 °F /  6.1 °C 30.4in /  1030.5hPa WNW 4mph /  6.4km/h 8mph /  12.9km/h 93% 0in /  0.0mm 0 W/m2
23:14 44.8 °F /  7.1 °C 42.8 °F /  6 °C 30.4in /  1030.8hPa WNW 2mph /  3.2km/h 5mph /  8km/h 93% 0in /  0.0mm 0 W/m2
23:19 44.8 °F /  7.1 °C 42.8 °F /  6 °C 30.4in /  1030.8hPa WNW 2mph /  3.2km/h 8mph /  12.9km/h 93% 0in /  0.0mm 0 W/m2
23:24 44.6 °F /  7 °C 42.6 °F /  5.9 °C 30.4in /  1030.8hPa WNW 2mph /  3.2km/h 3mph /  4.8km/h 93% 0in /  0.0mm 0 W/m2
23:29 44.4 °F /  6.9 °C 42.4 °F /  5.8 °C 30.4in /  1030.8hPa West 2mph /  3.2km/h 6mph /  9.7km/h 93% 0in /  0.0mm 0 W/m2
23:34 44.4 °F /  6.9 °C 42.4 °F /  5.8 °C 30.4in /  1030.8hPa WNW 2mph /  3.2km/h 6mph /  9.7km/h 93% 0in /  0.0mm 0 W/m2
23:39 44.4 °F /  6.9 °C 42.3 °F /  5.7 °C 30.4in /  1030.8hPa West 2.9mph /  4.7km/h 4mph /  6.4km/h 92% 0in /  0.0mm 0 W/m2
23:44 44.4 °F /  6.9 °C 42.3 °F /  5.7 °C 30.4in /  1030.8hPa WSW 4mph /  6.4km/h 9mph /  14.5km/h 92% 0in /  0.0mm 0 W/m2
23:49 44.4 °F /  6.9 °C 41.9 °F /  5.5 °C 30.5in /  1031.2hPa WNW 2.9mph /  4.7km/h 11mph /  17.7km/h 91% 0in /  0.0mm 0 W/m2
23:54 44.4 °F /  6.9 °C 41.9 °F /  5.5 °C 30.5in /  1031.2hPa West 2mph /  3.2km/h 6mph /  9.7km/h 91% 0in /  0.0mm 0 W/m2
23:59 44.2 °F /  6.8 °C 41.7 °F /  5.4 °C 30.5in /  1031.2hPa West 6mph /  9.7km/h 11mph /  17.7km/h 91% 0in /  0.0mm 0 W/m2
Juneau County Weather
Compliments of Weather Underground - 2 mb